Time,TemperatureF,DewpointF,PressureIn,WindDirection,WindDirectionDegrees,WindSpeedMPH,WindSpeedGustMPH,Humidity,HourlyPrecipIn,Conditions,Clouds,dailyrainin,SoftwareType,DateUTC
2013-12-29 00:00:00,39.9,-2.6,29.97,South,189,2.7,4.0,16,0.00,,---,0.00,VWS V14.01,2013-12-29 05:00:00,
2013-12-29 00:01:00,39.9,-2.6,29.97,South,189,2.2,2.7,16,0.00,,---,0.00,VWS V14.01,2013-12-29 05:01:00,
2013-12-29 00:06:00,39.7,-2.8,29.97,South,189,0.0,0.0,16,0.00,,---,0.00,VWS V14.01,2013-12-29 05:06:00,
2013-12-29 00:11:00,39.7,-2.8,29.97,SSE,161,2.7,3.6,16,0.00,,---,0.00,VWS V14.01,2013-12-29 05:11:00,
2013-12-29 00:16:00,39.7,-2.8,29.97,SSE,161,0.0,0.0,16,0.00,,---,0.00,VWS V14.01,2013-12-29 05:16:00,
2013-12-29 00:21:00,39.7,-2.8,29.97,SSW,194,0.0,0.0,16,0.00,,---,0.00,VWS V14.01,2013-12-29 05:21:00,
2013-12-29 00:26:00,39.9,-2.6,29.97,SSW,194,2.2,2.7,16,0.00,,---,0.00,VWS V14.01,2013-12-29 05:26:00,
2013-12-29 00:31:00,40.1,-2.5,29.97,South,181,2.7,3.1,16,0.00,,---,0.00,VWS V14.01,2013-12-29 05:31:00,
2013-12-29 00:36:00,40.3,-2.3,29.97,SW,214,0.0,0.0,16,0.00,,---,0.00,VWS V14.01,2013-12-29 05:36:00,
2013-12-29 00:41:00,40.5,-2.2,29.97,South,182,0.0,0.0,16,0.00,,---,0.00,VWS V14.01,2013-12-29 05:41:00,
2013-12-29 00:46:00,40.6,-2.0,29.97,SSW,194,0.0,0.0,16,0.00,,---,0.00,VWS V14.01,2013-12-29 05:46:00,
2013-12-29 00:51:00,41.0,-1.7,29.97,SSW,201,2.7,4.0,16,0.00,,---,0.00,VWS V14.01,2013-12-29 05:51:00,
2013-12-29 00:56:00,41.4,-1.5,29.97,SSW,192,3.6,4.0,16,0.00,,---,0.00,VWS V14.01,2013-12-29 05:56:00,
2013-12-29 01:01:00,41.0,-1.7,29.97,SSE,160,2.7,4.0,16,0.00,,---,0.00,VWS V14.01,2013-12-29 06:01:00,
2013-12-29 01:06:00,41.2,-1.6,29.97,SSE,155,3.1,3.6,16,0.00,,---,0.00,VWS V14.01,2013-12-29 06:06:00,
2013-12-29 01:11:00,41.2,-1.6,29.97,SSW,204,0.0,4.9,16,0.00,,---,0.00,VWS V14.01,2013-12-29 06:11:00,
2013-12-29 01:16:00,41.0,-1.7,29.97,SSW,195,3.6,3.6,16,0.00,,---,0.00,VWS V14.01,2013-12-29 06:16:00,
2013-12-29 01:21:00,41.2,-1.6,29.97,South,189,2.7,2.7,16,0.00,,---,0.00,VWS V14.01,2013-12-29 06:21:00,
2013-12-29 01:26:00,41.2,-1.6,29.97,South,190,0.0,0.0,16,0.00,,---,0.00,VWS V14.01,2013-12-29 06:26:00,
2013-12-29 01:31:00,41.2,-1.6,29.94,SSW,207,2.7,4.0,16,0.00,,---,0.00,VWS V14.01,2013-12-29 06:31:00,
2013-12-29 01:37:00,41.2,-1.6,29.94,SSW,207,0.0,0.0,16,0.00,,---,0.00,VWS V14.01,2013-12-29 06:37:00,
2013-12-29 01:42:00,41.0,-1.7,29.94,SSW,207,0.0,0.0,16,0.00,,---,0.00,VWS V14.01,2013-12-29 06:42:00,
2013-12-29 01:47:00,41.0,-1.7,29.94,SSW,207,0.0,0.0,16,0.00,,---,0.00,VWS V14.01,2013-12-29 06:47:00,
2013-12-29 01:52:00,41.0,-1.7,29.94,SSW,207,0.0,0.0,16,0.00,,---,0.00,VWS V14.01,2013-12-29 06:52:00,
2013-12-29 01:57:00,41.0,-1.7,29.94,SSW,207,0.0,0.0,16,0.00,,---,0.00,VWS V14.01,2013-12-29 06:57:00,
2013-12-29 02:02:00,41.0,-1.7,29.94,SSW,207,0.0,0.0,16,0.00,,---,0.00,VWS V14.01,2013-12-29 07:02:00,
2013-12-29 02:07:00,40.8,-1.9,29.94,SSW,207,0.0,0.0,16,0.00,,---,0.00,VWS V14.01,2013-12-29 07:07:00,
2013-12-29 02:12:00,40.8,-1.9,29.94,SSW,207,0.0,0.0,16,0.00,,---,0.00,VWS V14.01,2013-12-29 07:12:00,
2013-12-29 02:17:00,41.0,-1.7,29.94,SSW,207,0.0,0.0,16,0.00,,---,0.00,VWS V14.01,2013-12-29 07:17:00,
2013-12-29 02:22:00,41.0,-1.7,29.94,SSE,159,3.1,3.6,16,0.00,,---,0.00,VWS V14.01,2013-12-29 07:22:00,
2013-12-29 02:27:00,41.2,-1.6,29.94,South,181,2.2,3.6,16,0.00,,---,0.00,VWS V14.01,2013-12-29 07:27:00,
2013-12-29 02:32:00,41.2,-1.6,29.94,SSW,197,0.0,0.0,16,0.00,,---,0.00,VWS V14.01,2013-12-29 07:32:00,
2013-12-29 02:37:00,40.8,-1.9,29.94,SSW,197,0.0,0.0,16,0.00,,---,0.00,VWS V14.01,2013-12-29 07:37:00,
2013-12-29 02:42:00,40.5,-2.2,29.94,SSW,197,0.0,0.0,16,0.00,,---,0.00,VWS V14.01,2013-12-29 07:42:00,
2013-12-29 02:47:00,40.5,-2.2,29.94,SSW,197,0.0,0.0,16,0.00,,---,0.00,VWS V14.01,2013-12-29 07:47:00,
2013-12-29 02:52:00,40.3,-2.3,29.94,South,181,0.0,0.0,16,0.00,,---,0.00,VWS V14.01,2013-12-29 07:52:00,
2013-12-29 02:57:00,40.5,-2.2,29.94,SSW,192,3.1,3.1,16,0.00,,---,0.00,VWS V14.01,2013-12-29 07:57:00,
2013-12-29 03:02:00,40.5,-2.2,29.94,South,178,3.6,3.6,16,0.00,,---,0.00,VWS V14.01,2013-12-29 08:02:00,
2013-12-29 03:07:00,40.6,-2.0,29.94,South,181,3.1,3.6,16,0.00,,---,0.00,VWS V14.01,2013-12-29 08:07:00,
2013-12-29 03:12:00,41.0,-1.7,29.94,SSE,147,2.7,3.1,16,0.00,,---,0.00,VWS V14.01,2013-12-29 08:12:00,
2013-12-29 03:17:00,41.0,-1.7,29.94,South,173,0.0,0.0,16,0.00,,---,0.00,VWS V14.01,2013-12-29 08:17:00,
2013-12-29 03:22:00,41.0,-1.7,29.94,South,183,2.7,4.0,16,0.00,,---,0.00,VWS V14.01,2013-12-29 08:22:00,
2013-12-29 03:27:00,41.4,-1.5,29.94,SSE,168,0.0,3.1,16,0.00,,---,0.00,VWS V14.01,2013-12-29 08:27:00,
2013-12-29 03:32:00,41.5,-1.3,29.94,South,170,4.0,4.0,16,0.00,,---,0.00,VWS V14.01,2013-12-29 08:32:00,
2013-12-29 03:37:00,41.5,-1.3,29.94,South,171,3.6,4.9,16,0.00,,---,0.00,VWS V14.01,2013-12-29 08:37:00,
2013-12-29 03:42:00,41.7,-1.2,29.94,South,187,4.0,4.0,16,0.00,,---,0.00,VWS V14.01,2013-12-29 08:42:00,
2013-12-29 03:47:00,42.1,-0.9,29.94,SSE,159,3.1,3.1,16,0.00,,---,0.00,VWS V14.01,2013-12-29 08:47:00,
2013-12-29 03:52:00,42.3,-0.7,29.94,SSW,196,2.7,3.6,16,0.00,,---,0.00,VWS V14.01,2013-12-29 08:52:00,
2013-12-29 03:57:00,42.3,-0.7,29.94,SSW,197,2.7,4.9,16,0.00,,---,0.00,VWS V14.01,2013-12-29 08:57:00,
2013-12-29 04:02:00,42.3,-0.7,29.94,SSW,201,0.0,4.0,16,0.00,,---,0.00,VWS V14.01,2013-12-29 09:02:00,
2013-12-29 04:07:00,42.4,-0.6,29.94,SSW,192,2.7,3.6,16,0.00,,---,0.00,VWS V14.01,2013-12-29 09:07:00,
2013-12-29 04:12:00,42.6,-0.4,29.94,SSW,192,2.7,4.0,16,0.00,,---,0.00,VWS V14.01,2013-12-29 09:12:00,
2013-12-29 04:17:00,42.8,-1.6,29.91,South,181,4.0,4.0,15,0.00,,---,0.00,VWS V14.01,2013-12-29 09:17:00,
2013-12-29 04:22:00,42.8,-1.6,29.91,SSW,196,4.0,4.0,15,0.00,,---,0.00,VWS V14.01,2013-12-29 09:22:00,
2013-12-29 04:27:00,42.8,-1.6,29.91,SSW,200,0.0,3.6,15,0.00,,---,0.00,VWS V14.01,2013-12-29 09:27:00,
2013-12-29 04:32:00,42.8,-1.6,29.91,South,171,4.0,4.0,15,0.00,,---,0.00,VWS V14.01,2013-12-29 09:32:00,
2013-12-29 04:37:00,42.8,-1.6,29.91,South,185,0.0,0.0,15,0.00,,---,0.00,VWS V14.01,2013-12-29 09:37:00,
2013-12-29 04:42:00,42.8,-1.6,29.91,SSW,195,0.0,3.1,15,0.00,,---,0.00,VWS V14.01,2013-12-29 09:42:00,
2013-12-29 04:47:00,43.0,-1.5,29.91,SSW,192,0.0,2.7,15,0.00,,---,0.00,VWS V14.01,2013-12-29 09:47:00,
2013-12-29 04:52:00,43.0,-1.5,29.91,SSW,211,4.0,5.4,15,0.00,,---,0.00,VWS V14.01,2013-12-29 09:52:00,
2013-12-29 04:57:00,43.0,-1.5,29.91,South,174,0.0,3.1,15,0.00,,---,0.00,VWS V14.01,2013-12-29 09:57:00,
2013-12-29 05:02:00,43.0,-1.5,29.91,SSE,152,2.2,3.6,15,0.00,,---,0.00,VWS V14.01,2013-12-29 10:02:00,
2013-12-29 05:07:00,43.0,-1.5,29.91,SSE,152,0.0,0.0,15,0.00,,---,0.00,VWS V14.01,2013-12-29 10:07:00,
2013-12-29 05:12:00,42.8,-1.6,29.91,South,179,0.0,0.0,15,0.00,,---,0.00,VWS V14.01,2013-12-29 10:12:00,
2013-12-29 05:17:00,42.8,-1.6,29.88,South,191,0.0,0.0,15,0.00,,---,0.00,VWS V14.01,2013-12-29 10:17:00,
2013-12-29 05:22:00,42.6,-0.4,29.88,South,191,0.0,0.0,16,0.00,,---,0.00,VWS V14.01,2013-12-29 10:22:00,
2013-12-29 05:27:00,42.4,-0.6,29.88,South,191,0.0,0.0,16,0.00,,---,0.00,VWS V14.01,2013-12-29 10:27:00,
2013-12-29 05:32:00,42.4,-0.6,29.88,South,191,0.0,0.0,16,0.00,,---,0.00,VWS V14.01,2013-12-29 10:32:00,
2013-12-29 05:37:00,42.3,-0.7,29.88,South,184,2.7,4.0,16,0.00,,---,0.00,VWS V14.01,2013-12-29 10:37:00,
2013-12-29 05:42:00,42.3,-0.7,29.88,South,184,0.0,0.0,16,0.00,,---,0.00,VWS V14.01,2013-12-29 10:42:00,
2013-12-29 05:47:00,42.3,-0.7,29.88,SW,214,0.0,0.0,16,0.00,,---,0.00,VWS V14.01,2013-12-29 10:47:00,
2013-12-29 05:52:00,42.4,-0.6,29.88,South,184,0.0,0.0,16,0.00,,---,0.00,VWS V14.01,2013-12-29 10:52:00,
2013-12-29 05:57:00,42.8,-1.6,29.88,South,177,3.1,4.0,15,0.00,,---,0.00,VWS V14.01,2013-12-29 10:57:00,
2013-12-29 06:02:00,43.3,-1.2,29.91,SSW,193,3.6,4.0,15,0.00,,---,0.00,VWS V14.01,2013-12-29 11:02:00,
2013-12-29 06:07:00,43.9,-0.8,29.91,SSW,194,4.0,5.4,15,0.00,,---,0.00,VWS V14.01,2013-12-29 11:07:00,
2013-12-29 06:12:00,44.1,-0.6,29.91,SW,218,3.6,4.0,15,0.00,,---,0.00,VWS V14.01,2013-12-29 11:12:00,
2013-12-29 06:17:00,45.0,0.1,29.91,SW,224,5.4,5.4,15,0.00,,---,0.00,VWS V14.01,2013-12-29 11:17:00,
2013-12-29 06:22:00,45.1,0.3,29.91,South,184,3.1,4.0,15,0.00,,---,0.00,VWS V14.01,2013-12-29 11:22:00,
2013-12-29 06:27:00,45.3,0.4,29.91,South,188,3.6,5.8,15,0.00,,---,0.00,VWS V14.01,2013-12-29 11:27:00,
2013-12-29 06:32:00,45.5,0.6,29.91,SW,225,0.0,4.0,15,0.00,,---,0.00,VWS V14.01,2013-12-29 11:32:00,
2013-12-29 06:37:00,45.1,0.3,29.91,South,187,3.6,4.0,15,0.00,,---,0.00,VWS V14.01,2013-12-29 11:37:00,
2013-12-29 06:42:00,45.0,0.1,29.91,SSW,212,3.6,8.3,15,0.00,,---,0.00,VWS V14.01,2013-12-29 11:42:00,
2013-12-29 06:47:00,44.8,0.0,29.91,SSW,209,2.7,2.7,15,0.00,,---,0.00,VWS V14.01,2013-12-29 11:47:00,
2013-12-29 06:52:00,44.6,-0.2,29.91,SSW,194,4.0,4.0,15,0.00,,---,0.00,VWS V14.01,2013-12-29 11:52:00,
2013-12-29 06:57:00,43.9,-0.8,29.91,SSW,194,3.1,5.4,15,0.00,,---,0.00,VWS V14.01,2013-12-29 11:57:00,
2013-12-29 07:02:00,43.9,3.1,29.91,SSW,197,2.2,3.1,18,0.00,,---,0.00,VWS V14.01,2013-12-29 12:02:00,
2013-12-29 07:07:00,43.3,2.7,29.91,SSE,164,2.7,3.1,18,0.00,,---,0.00,VWS V14.01,2013-12-29 12:07:00,
2013-12-29 07:12:00,43.2,2.5,29.91,SW,220,0.0,0.0,18,0.00,,---,0.00,VWS V14.01,2013-12-29 12:12:00,
2013-12-29 07:17:00,43.0,7.7,29.91,SSW,199,0.0,0.0,23,0.00,,---,0.00,VWS V14.01,2013-12-29 12:17:00,
2013-12-29 07:22:00,42.8,14.3,29.91,SSW,199,3.1,3.1,31,0.00,,---,0.00,VWS V14.01,2013-12-29 12:22:00,
2013-12-29 07:27:00,42.3,18.5,29.91,SSE,149,0.0,3.6,38,0.00,,---,0.00,VWS V14.01,2013-12-29 12:27:00,
2013-12-29 07:32:00,42.1,18.3,29.91,South,189,0.0,3.6,38,0.00,,---,0.00,VWS V14.01,2013-12-29 12:32:00,
2013-12-29 07:37:00,42.1,18.3,29.91,SSW,196,2.7,2.7,38,0.04,,---,0.04,VWS V14.01,2013-12-29 12:37:00,
2013-12-29 07:42:00,42.1,18.3,29.91,SSW,196,0.0,0.0,38,0.04,,---,0.04,VWS V14.01,2013-12-29 12:42:00,
2013-12-29 07:47:00,42.1,18.9,29.91,SSW,196,0.0,0.0,39,0.04,,---,0.04,VWS V14.01,2013-12-29 12:47:00,
2013-12-29 07:52:00,42.1,18.9,29.91,SSW,196,0.0,0.0,39,0.04,,---,0.04,VWS V14.01,2013-12-29 12:52:00,
2013-12-29 07:57:00,42.1,18.9,29.91,SSW,196,0.0,0.0,39,0.04,,---,0.04,VWS V14.01,2013-12-29 12:57:00,
2013-12-29 08:02:00,42.1,18.9,29.88,SSW,196,0.0,0.0,39,0.04,,---,0.04,VWS V14.01,2013-12-29 13:02:00,
2013-12-29 08:07:00,42.1,18.9,29.88,SSW,196,0.0,0.0,39,0.04,,---,0.04,VWS V14.01,2013-12-29 13:07:00,
2013-12-29 08:12:00,42.1,19.5,29.88,SSW,196,0.0,0.0,40,0.12,,---,0.12,VWS V14.01,2013-12-29 13:12:00,
2013-12-29 08:17:00,42.1,19.5,29.88,SSW,196,0.0,0.0,40,0.12,,---,0.12,VWS V14.01,2013-12-29 13:17:00,
2013-12-29 08:22:00,42.1,19.5,29.88,SSW,196,0.0,0.0,40,0.12,,---,0.12,VWS V14.01,2013-12-29 13:22:00,
2013-12-29 08:27:00,42.1,20.1,29.88,SSW,196,0.0,0.0,41,0.12,,---,0.12,VWS V14.01,2013-12-29 13:27:00,
2013-12-29 08:32:00,42.1,20.7,29.88,SSW,196,0.0,0.0,42,0.12,,---,0.12,VWS V14.01,2013-12-29 13:32:00,
2013-12-29 08:37:00,42.1,21.2,29.88,SSW,196,0.0,0.0,43,0.12,,---,0.16,VWS V14.01,2013-12-29 13:37:00,
2013-12-29 08:42:00,42.1,21.8,29.88,SSW,196,0.0,0.0,44,0.12,,---,0.16,VWS V14.01,2013-12-29 13:42:00,
2013-12-29 08:47:00,42.1,21.8,29.85,SSW,196,0.0,0.0,44,0.12,,---,0.16,VWS V14.01,2013-12-29 13:47:00,
2013-12-29 08:52:00,42.3,22.5,29.85,SSW,196,0.0,0.0,45,0.12,,---,0.16,VWS V14.01,2013-12-29 13:52:00,
2013-12-29 08:57:00,42.3,22.5,29.85,SSW,196,0.0,0.0,45,0.12,,---,0.16,VWS V14.01,2013-12-29 13:57:00,
2013-12-29 09:02:00,42.4,23.6,29.85,SSW,196,0.0,0.0,47,0.12,,---,0.16,VWS V14.01,2013-12-29 14:02:00,
2013-12-29 09:07:00,42.4,24.1,29.85,SSW,196,0.0,0.0,48,0.12,,---,0.16,VWS V14.01,2013-12-29 14:07:00,
2013-12-29 09:12:00,42.6,24.3,29.85,SSW,196,0.0,0.0,48,0.04,,---,0.16,VWS V14.01,2013-12-29 14:12:00,
2013-12-29 09:17:00,42.6,24.3,29.83,SSW,196,0.0,0.0,48,0.04,,---,0.16,VWS V14.01,2013-12-29 14:17:00,
2013-12-29 09:22:00,42.8,24.5,29.83,SSW,196,0.0,0.0,48,0.04,,---,0.16,VWS V14.01,2013-12-29 14:22:00,
2013-12-29 09:27:00,42.8,24.5,29.83,SSW,196,0.0,0.0,48,0.04,,---,0.16,VWS V14.01,2013-12-29 14:27:00,
2013-12-29 09:32:00,42.8,25.0,29.83,SSW,196,0.0,0.0,49,0.04,,---,0.16,VWS V14.01,2013-12-29 14:32:00,
2013-12-29 09:37:00,42.8,25.0,29.83,SSW,196,0.0,0.0,49,0.04,,---,0.16,VWS V14.01,2013-12-29 14:37:00,
2013-12-29 09:42:00,42.8,25.0,29.83,SSW,196,0.0,0.0,49,0.00,,---,0.16,VWS V14.01,2013-12-29 14:42:00,
2013-12-29 09:47:00,43.0,25.1,29.80,SSW,196,0.0,0.0,49,0.04,,---,0.20,VWS V14.01,2013-12-29 14:47:00,
2013-12-29 09:52:00,43.0,25.1,29.80,SSW,196,0.0,0.0,49,0.04,,---,0.20,VWS V14.01,2013-12-29 14:52:00,
2013-12-29 09:57:00,43.2,25.8,29.80,SSW,196,0.0,0.0,50,0.04,,---,0.20,VWS V14.01,2013-12-29 14:57:00,
2013-12-29 10:02:00,43.2,25.8,29.80,ENE,68,0.0,0.0,50,0.04,,---,0.20,VWS V14.01,2013-12-29 15:02:00,
2013-12-29 10:07:00,43.3,26.0,29.80,ENE,68,0.0,0.0,50,0.04,,---,0.20,VWS V14.01,2013-12-29 15:07:00,
2013-12-29 10:12:00,43.7,26.8,29.80,ESE,116,0.0,0.0,51,0.04,,---,0.20,VWS V14.01,2013-12-29 15:12:00,
2013-12-29 10:17:00,43.7,26.8,29.77,ESE,116,0.0,0.0,51,0.04,,---,0.20,VWS V14.01,2013-12-29 15:17:00,
2013-12-29 10:22:00,43.7,26.3,29.77,ESE,116,0.0,0.0,50,0.04,,---,0.20,VWS V14.01,2013-12-29 15:22:00,
2013-12-29 10:27:00,43.9,26.9,29.77,SSW,192,2.7,4.9,51,0.04,,---,0.20,VWS V14.01,2013-12-29 15:27:00,
2013-12-29 10:32:00,43.9,27.4,29.77,SSW,192,0.0,0.0,52,0.04,,---,0.20,VWS V14.01,2013-12-29 15:32:00,
2013-12-29 10:37:00,43.9,27.9,29.77,SSW,192,0.0,0.0,53,0.04,,---,0.20,VWS V14.01,2013-12-29 15:37:00,
2013-12-29 10:42:00,44.1,28.5,29.77,SSW,192,0.0,0.0,54,0.04,,---,0.20,VWS V14.01,2013-12-29 15:42:00,
2013-12-29 10:47:00,44.2,28.7,29.74,SSW,192,0.0,0.0,54,0.04,,---,0.24,VWS V14.01,2013-12-29 15:47:00,
2013-12-29 10:52:00,44.4,29.3,29.74,SSW,192,0.0,0.0,55,0.04,,---,0.24,VWS V14.01,2013-12-29 15:52:00,
2013-12-29 10:56:00,44.8,29.6,29.74,SSW,192,0.0,0.0,55,0.04,,---,0.24,VWS V14.01,2013-12-29 15:56:00,
2013-12-29 11:01:00,45.1,30.4,29.71,SSW,192,0.0,0.0,56,0.04,,---,0.24,VWS V14.01,2013-12-29 16:01:00,
2013-12-29 11:07:00,45.3,31.4,29.71,ENE,62,0.0,0.0,58,0.04,,---,0.24,VWS V14.01,2013-12-29 16:07:00,
2013-12-29 11:12:00,45.5,31.6,29.71,ENE,62,0.0,0.0,58,0.04,,---,0.24,VWS V14.01,2013-12-29 16:12:00,
2013-12-29 11:17:00,45.9,32.4,29.71,ENE,66,0.0,0.0,59,0.04,,---,0.24,VWS V14.01,2013-12-29 16:17:00,
2013-12-29 11:21:00,46.0,34.2,29.71,NE,53,0.0,0.0,63,0.04,,---,0.24,VWS V14.01,2013-12-29 16:21:00,
2013-12-29 11:26:00,46.4,36.0,29.71,NE,39,0.0,0.0,67,0.04,,---,0.24,VWS V14.01,2013-12-29 16:26:00,
2013-12-29 11:31:00,46.6,36.6,29.68,East,88,0.0,0.0,68,0.04,,---,0.24,VWS V14.01,2013-12-29 16:31:00,
2013-12-29 11:36:00,46.8,37.9,29.68,East,86,0.0,0.0,71,0.04,,---,0.24,VWS V14.01,2013-12-29 16:36:00,
2013-12-29 11:41:00,46.9,38.8,29.68,East,86,0.0,0.0,73,0.08,,---,0.28,VWS V14.01,2013-12-29 16:41:00,
2013-12-29 11:46:00,46.9,39.1,29.68,NE,39,0.0,0.0,74,0.04,,---,0.28,VWS V14.01,2013-12-29 16:46:00,
2013-12-29 11:52:00,46.9,39.4,29.68,ENE,76,0.0,3.1,75,0.04,,---,0.28,VWS V14.01,2013-12-29 16:52:00,
2013-12-29 11:57:00,47.1,40.0,29.68,ENE,64,3.6,3.6,76,0.04,,---,0.28,VWS V14.01,2013-12-29 16:57:00,
2013-12-29 12:02:00,47.3,40.5,29.62,ENE,64,0.0,4.9,77,0.04,,---,0.28,VWS V14.01,2013-12-29 17:02:00,
2013-12-29 12:07:00,47.3,40.8,29.62,East,92,3.6,4.9,78,0.08,,---,0.31,VWS V14.01,2013-12-29 17:07:00,
2013-12-29 12:12:00,47.5,41.6,29.62,ENE,61,6.3,6.3,80,0.08,,---,0.31,VWS V14.01,2013-12-29 17:12:00,
2013-12-29 12:17:00,47.7,42.1,29.62,East,85,0.0,2.7,81,0.12,,---,0.35,VWS V14.01,2013-12-29 17:17:00,
2013-12-29 12:22:00,47.7,42.4,29.62,ESE,113,0.0,0.0,82,0.12,,---,0.35,VWS V14.01,2013-12-29 17:22:00,
2013-12-29 12:27:00,47.8,42.6,29.62,ESE,104,5.8,5.8,82,0.12,,---,0.35,VWS V14.01,2013-12-29 17:27:00,
2013-12-29 12:32:00,47.8,42.9,29.59,East,101,6.3,6.3,83,0.16,,---,0.39,VWS V14.01,2013-12-29 17:32:00,
2013-12-29 12:37:00,48.0,43.1,29.59,ENE,78,0.0,2.7,83,0.16,,---,0.39,VWS V14.01,2013-12-29 17:37:00,
2013-12-29 12:42:00,48.2,43.3,29.59,ENE,65,0.0,4.0,83,0.20,,---,0.43,VWS V14.01,2013-12-29 17:42:00,
2013-12-29 12:47:00,48.4,43.5,29.56,SE,125,4.0,4.9,83,0.16,,---,0.43,VWS V14.01,2013-12-29 17:47:00,
2013-12-29 12:52:00,48.7,44.1,29.56,ENE,75,4.0,4.0,84,0.20,,---,0.47,VWS V14.01,2013-12-29 17:52:00,
2013-12-29 12:57:00,48.7,44.4,29.56,SE,137,5.8,5.8,85,0.20,,---,0.47,VWS V14.01,2013-12-29 17:57:00,
2013-12-29 13:02:00,48.9,44.6,29.53,ESE,111,4.0,4.0,85,0.24,,---,0.51,VWS V14.01,2013-12-29 18:02:00,
2013-12-29 13:07:00,48.9,44.6,29.53,ENE,69,3.1,3.6,85,0.24,,---,0.55,VWS V14.01,2013-12-29 18:07:00,
2013-12-29 13:12:00,49.1,45.1,29.53,ENE,72,2.7,3.1,86,0.24,,---,0.55,VWS V14.01,2013-12-29 18:12:00,
2013-12-29 13:17:00,49.3,45.3,29.50,ESE,123,4.0,5.8,86,0.24,,---,0.59,VWS V14.01,2013-12-29 18:17:00,
2013-12-29 13:22:00,49.5,45.5,29.50,ENE,78,3.6,5.4,86,0.24,,---,0.59,VWS V14.01,2013-12-29 18:22:00,
2013-12-29 13:27:00,49.8,46.1,29.50,ENE,71,3.1,5.4,87,0.31,,---,0.67,VWS V14.01,2013-12-29 18:27:00,
2013-12-29 13:32:00,50.0,46.3,29.47,NE,55,3.1,4.9,87,0.28,,---,0.67,VWS V14.01,2013-12-29 18:32:00,
2013-12-29 13:37:00,50.0,46.3,29.47,East,80,3.1,4.9,87,0.35,,---,0.75,VWS V14.01,2013-12-29 18:37:00,
2013-12-29 13:42:00,50.2,46.8,29.47,East,94,3.1,4.0,88,0.35,,---,0.79,VWS V14.01,2013-12-29 18:42:00,
2013-12-29 13:47:00,50.5,47.4,29.44,ESE,110,8.3,8.3,89,0.43,,---,0.87,VWS V14.01,2013-12-29 18:47:00,
2013-12-29 13:52:00,50.7,47.6,29.44,East,90,4.9,4.9,89,0.43,,---,0.91,VWS V14.01,2013-12-29 18:52:00,
2013-12-29 13:57:00,51.1,48.2,29.44,ENE,76,3.6,5.8,90,0.47,,---,0.94,VWS V14.01,2013-12-29 18:57:00,
2013-12-29 14:02:00,51.4,48.6,29.41,East,97,2.2,2.7,90,0.47,,---,0.98,VWS V14.01,2013-12-29 19:02:00,
2013-12-29 14:07:00,51.6,48.8,29.41,ESE,115,4.0,4.0,90,0.47,,---,1.02,VWS V14.01,2013-12-29 19:07:00,
2013-12-29 14:12:00,52.0,49.1,29.41,SE,134,5.8,5.8,90,0.47,,---,1.02,VWS V14.01,2013-12-29 19:12:00,
2013-12-29 14:17:00,52.2,49.3,29.41,ENE,78,2.2,5.4,90,0.47,,---,1.06,VWS V14.01,2013-12-29 19:17:00,
2013-12-29 14:22:00,52.3,49.8,29.41,East,93,3.1,3.6,91,0.47,,---,1.06,VWS V14.01,2013-12-29 19:22:00,
2013-12-29 14:27:00,52.3,49.8,29.41,ENE,74,4.5,5.4,91,0.47,,---,1.10,VWS V14.01,2013-12-29 19:27:00,
2013-12-29 14:32:00,52.7,50.2,29.38,SE,130,7.2,7.2,91,0.43,,---,1.10,VWS V14.01,2013-12-29 19:32:00,
2013-12-29 14:37:00,53.2,50.7,29.38,ENE,73,3.6,4.0,91,0.39,,---,1.10,VWS V14.01,2013-12-29 19:37:00,
2013-12-29 14:42:00,53.8,51.2,29.38,SE,134,5.4,5.8,91,0.39,,---,1.14,VWS V14.01,2013-12-29 19:42:00,
2013-12-29 14:47:00,54.3,51.8,29.35,ESE,118,2.7,4.0,91,0.28,,---,1.14,VWS V14.01,2013-12-29 19:47:00,
2013-12-29 14:52:00,54.9,52.6,29.35,ESE,110,2.2,4.9,92,0.28,,---,1.18,VWS V14.01,2013-12-29 19:52:00,
2013-12-29 14:57:00,55.8,53.5,29.35,SE,143,2.2,6.3,92,0.24,,---,1.18,VWS V14.01,2013-12-29 19:57:00,
2013-12-29 15:02:00,57.2,54.9,29.32,South,169,7.6,8.7,92,0.20,,---,1.18,VWS V14.01,2013-12-29 20:02:00,
2013-12-29 15:07:00,59.2,56.9,29.32,ENE,70,8.7,12.8,92,0.16,,---,1.18,VWS V14.01,2013-12-29 20:07:00,
2013-12-29 15:12:00,59.9,57.6,29.32,SSE,156,8.7,8.7,92,0.16,,---,1.18,VWS V14.01,2013-12-29 20:12:00,
2013-12-29 15:17:00,60.8,58.5,29.32,East,100,10.1,17.0,92,0.12,,---,1.18,VWS V14.01,2013-12-29 20:17:00,
2013-12-29 15:22:00,60.8,58.5,29.32,South,169,4.0,7.6,92,0.12,,---,1.18,VWS V14.01,2013-12-29 20:22:00,
2013-12-29 15:27:00,61.0,59.0,29.32,SSE,158,8.7,10.1,93,0.08,,---,1.18,VWS V14.01,2013-12-29 20:27:00,
2013-12-29 15:31:00,61.0,59.0,29.29,SE,136,6.7,12.3,93,0.08,,---,1.18,VWS V14.01,2013-12-29 20:31:00,
2013-12-29 15:36:00,61.3,59.3,29.29,SSW,200,14.5,14.5,93,0.08,,---,1.18,VWS V14.01,2013-12-29 20:36:00,
2013-12-29 15:41:00,61.5,59.5,29.29,SW,222,10.1,10.1,93,0.04,,---,1.18,VWS V14.01,2013-12-29 20:41:00,
2013-12-29 15:46:00,61.7,59.4,29.29,West,260,13.2,17.4,92,0.04,,---,1.18,VWS V14.01,2013-12-29 20:46:00,
2013-12-29 15:51:00,61.7,59.4,29.29,West,277,4.5,11.0,92,0.04,,---,1.22,VWS V14.01,2013-12-29 20:51:00,
2013-12-29 15:56:00,61.7,59.4,29.29,West,261,9.6,9.6,92,0.08,,---,1.26,VWS V14.01,2013-12-29 20:56:00,
2013-12-29 16:01:00,61.5,58.9,29.32,NE,52,3.1,7.6,91,0.12,,---,1.30,VWS V14.01,2013-12-29 21:01:00,
2013-12-29 16:06:00,60.6,58.0,29.32,WNW,293,8.3,9.6,91,0.16,,---,1.34,VWS V14.01,2013-12-29 21:06:00,
2013-12-29 16:11:00,59.2,56.2,29.32,NW,318,3.1,5.4,90,0.16,,---,1.34,VWS V14.01,2013-12-29 21:11:00,
2013-12-29 16:16:00,58.6,55.4,29.32,NW,315,2.7,8.7,89,0.16,,---,1.34,VWS V14.01,2013-12-29 21:16:00,
2013-12-29 16:21:00,58.6,55.1,29.32,WNW,287,2.7,4.0,88,0.16,,---,1.34,VWS V14.01,2013-12-29 21:21:00,
2013-12-29 16:26:00,58.6,54.8,29.32,West,272,5.4,7.6,87,0.16,,---,1.34,VWS V14.01,2013-12-29 21:26:00,
2013-12-29 16:31:00,58.6,54.5,29.32,NNW,328,0.0,0.0,86,0.16,,---,1.34,VWS V14.01,2013-12-29 21:31:00,
2013-12-29 16:36:00,58.6,54.2,29.32,WNW,292,2.7,3.6,85,0.16,,---,1.34,VWS V14.01,2013-12-29 21:36:00,
2013-12-29 16:41:00,58.6,54.2,29.32,WSW,242,8.3,8.3,85,0.16,,---,1.34,VWS V14.01,2013-12-29 21:41:00,
2013-12-29 16:47:00,58.6,53.8,29.32,SW,234,6.3,7.6,84,0.16,,---,1.34,VWS V14.01,2013-12-29 21:47:00,
2013-12-29 16:51:00,58.6,53.8,29.32,NW,321,0.0,0.0,84,0.12,,---,1.34,VWS V14.01,2013-12-29 21:51:00,
2013-12-29 16:56:00,58.6,53.8,29.32,West,270,7.2,7.2,84,0.08,,---,1.34,VWS V14.01,2013-12-29 21:56:00,
2013-12-29 17:01:00,58.6,53.8,29.32,NNW,333,2.7,4.5,84,0.04,,---,1.34,VWS V14.01,2013-12-29 22:01:00,
2013-12-29 17:06:00,58.6,53.8,29.32,NNE,19,8.1,8.1,84,0.00,,---,1.34,VWS V14.01,2013-12-29 22:06:00,
2013-12-29 17:11:00,58.6,53.8,29.32,NNE,15,0.0,2.7,84,0.00,,---,1.34,VWS V14.01,2013-12-29 22:11:00,
2013-12-29 17:17:00,57.6,49.0,29.32,North,353,6.7,6.7,73,0.00,,---,1.34,VWS V14.01,2013-12-29 22:17:00,
2013-12-29 17:22:00,57.4,47.3,29.32,NW,311,0.0,0.0,69,0.00,,---,1.34,VWS V14.01,2013-12-29 22:22:00,
2013-12-29 17:27:00,57.4,47.3,29.32,NNW,337,2.7,2.7,69,0.00,,---,1.34,VWS V14.01,2013-12-29 22:27:00,
2013-12-29 17:32:00,57.4,47.3,29.35,North,357,2.2,2.2,69,0.00,,---,1.34,VWS V14.01,2013-12-29 22:32:00,
2013-12-29 17:37:00,57.4,47.3,29.35,WNW,289,5.8,5.8,69,0.00,,---,1.34,VWS V14.01,2013-12-29 22:37:00,
2013-12-29 17:42:00,56.1,35.6,29.35,West,260,0.0,8.3,46,0.00,,---,1.34,VWS V14.01,2013-12-29 22:42:00,
2013-12-29 17:47:00,55.9,34.9,29.35,WNW,295,9.6,9.6,45,0.00,,---,1.34,VWS V14.01,2013-12-29 22:47:00,
2013-12-29 17:52:00,55.4,32.1,29.35,WNW,295,5.4,12.3,41,0.00,,---,1.34,VWS V14.01,2013-12-29 22:52:00,
2013-12-29 17:57:00,54.9,31.0,29.35,NNW,332,10.1,10.1,40,0.00,,---,1.34,VWS V14.01,2013-12-29 22:57:00,
2013-12-29 18:02:00,54.5,30.1,29.38,NW,319,6.3,6.3,39,0.00,,---,1.34,VWS V14.01,2013-12-29 23:02:00,
2013-12-29 18:07:00,54.1,31.0,29.38,West,276,10.1,10.5,41,0.00,,---,1.34,VWS V14.01,2013-12-29 23:07:00,
2013-12-29 18:12:00,53.8,30.6,29.38,NW,315,8.3,8.3,41,0.00,,---,1.34,VWS V14.01,2013-12-29 23:12:00,
2013-12-29 18:17:00,53.2,30.8,29.38,North,353,8.7,8.7,42,0.00,,---,1.34,VWS V14.01,2013-12-29 23:17:00,
2013-12-29 18:22:00,53.1,30.6,29.38,NNW,345,4.9,11.0,42,0.00,,---,1.34,VWS V14.01,2013-12-29 23:22:00,
2013-12-29 18:27:00,52.7,30.3,29.38,NW,315,3.6,5.4,42,0.00,,---,1.34,VWS V14.01,2013-12-29 23:27:00,
2013-12-29 18:32:00,52.3,29.4,29.41,NW,313,5.8,8.7,41,0.00,,---,1.34,VWS V14.01,2013-12-29 23:32:00,
2013-12-29 18:37:00,52.2,29.2,29.41,NNW,331,8.3,8.3,41,0.00,,---,1.34,VWS V14.01,2013-12-29 23:37:00,
2013-12-29 18:42:00,51.8,28.3,29.41,NW,321,4.0,4.9,40,0.00,,---,1.34,VWS V14.01,2013-12-29 23:42:00,
2013-12-29 18:47:00,51.6,28.1,29.41,NW,315,5.4,8.3,40,0.00,,---,1.34,VWS V14.01,2013-12-29 23:47:00,
2013-12-29 18:52:00,51.4,28.5,29.41,North,353,8.3,8.3,41,0.00,,---,1.34,VWS V14.01,2013-12-29 23:52:00,
2013-12-29 18:57:00,51.3,26.5,29.41,WNW,287,4.5,8.3,38,0.00,,---,1.34,VWS V14.01,2013-12-29 23:57:00,
2013-12-29 19:02:00,51.3,27.2,29.44,NW,322,4.0,6.3,39,0.00,,---,1.34,VWS V14.01,2013-12-30 00:02:00,
2013-12-29 19:07:00,51.1,27.0,29.44,West,277,4.0,8.3,39,0.00,,---,1.34,VWS V14.01,2013-12-30 00:07:00,
2013-12-29 19:12:00,50.9,27.5,29.44,North,2,4.9,5.8,40,0.00,,---,1.34,VWS V14.01,2013-12-30 00:12:00,
2013-12-29 19:17:00,50.7,27.3,29.44,WNW,293,5.8,6.3,40,0.00,,---,1.34,VWS V14.01,2013-12-30 00:17:00,
2013-12-29 19:22:00,50.5,27.1,29.44,North,353,10.5,11.4,40,0.00,,---,1.34,VWS V14.01,2013-12-30 00:22:00,
2013-12-29 19:27:00,50.4,25.7,29.44,WNW,291,8.3,8.3,38,0.00,,---,1.34,VWS V14.01,2013-12-30 00:27:00,
2013-12-29 19:32:00,50.4,25.7,29.44,NW,312,4.9,12.8,38,0.00,,---,1.34,VWS V14.01,2013-12-30 00:32:00,
2013-12-29 19:37:00,50.2,25.6,29.44,NNW,328,5.8,14.1,38,0.00,,---,1.34,VWS V14.01,2013-12-30 00:37:00,
2013-12-29 19:42:00,50.2,25.6,29.44,NW,306,8.7,10.1,38,0.00,,---,1.34,VWS V14.01,2013-12-30 00:42:00,
2013-12-29 19:47:00,50.0,26.0,29.47,NW,320,5.8,5.8,39,0.00,,---,1.34,VWS V14.01,2013-12-30 00:47:00,
2013-12-29 19:52:00,49.8,25.9,29.47,NW,309,4.0,4.0,39,0.00,,---,1.34,VWS V14.01,2013-12-30 00:52:00,
2013-12-29 19:57:00,49.6,25.1,29.47,WNW,291,3.1,7.6,38,0.00,,---,1.34,VWS V14.01,2013-12-30 00:57:00,
2013-12-29 20:02:00,49.6,25.1,29.47,WNW,299,7.6,7.6,38,0.00,,---,1.34,VWS V14.01,2013-12-30 01:02:00,
2013-12-29 20:07:00,49.3,24.1,29.47,NW,307,7.2,10.5,37,0.00,,---,1.34,VWS V14.01,2013-12-30 01:07:00,
2013-12-29 20:12:00,49.3,24.1,29.47,NW,326,4.0,5.4,37,0.00,,---,1.34,VWS V14.01,2013-12-30 01:12:00,
2013-12-29 20:17:00,49.1,24.0,29.50,NNW,335,7.2,10.5,37,0.00,,---,1.34,VWS V14.01,2013-12-30 01:17:00,
2013-12-29 20:22:00,48.9,23.8,29.50,NW,304,5.8,10.5,37,0.00,,---,1.34,VWS V14.01,2013-12-30 01:22:00,
2013-12-29 20:27:00,48.7,23.6,29.50,NNE,21,5.8,5.8,37,0.00,,---,1.34,VWS V14.01,2013-12-30 01:27:00,
2013-12-29 20:32:00,48.4,23.3,29.53,NW,314,8.3,8.3,37,0.00,,---,1.34,VWS V14.01,2013-12-30 01:32:00,
2013-12-29 20:35:00,48.2,23.2,29.53,NNW,336,5.4,5.8,37,0.00,,---,1.34,VWS V14.01,2013-12-30 01:35:00,
2013-12-29 20:40:00,48.0,23.6,29.53,NNW,338,6.3,6.3,38,0.00,,---,1.34,VWS V14.01,2013-12-30 01:40:00,
2013-12-29 20:45:00,47.7,23.9,29.53,ENE,65,5.8,5.8,39,0.00,,---,1.34,VWS V14.01,2013-12-30 01:45:00,
2013-12-29 20:50:00,47.3,23.0,29.53,NNE,31,5.8,10.5,38,0.00,,---,1.34,VWS V14.01,2013-12-30 01:50:00,
2013-12-29 20:55:00,46.9,22.7,29.53,NNW,337,5.8,9.2,38,0.00,,---,1.34,VWS V14.01,2013-12-30 01:55:00,
2013-12-29 21:00:00,46.8,22.5,29.53,NW,319,7.6,10.5,38,0.00,,---,1.34,VWS V14.01,2013-12-30 02:00:00,
2013-12-29 21:05:00,46.8,23.1,29.53,NNW,339,7.6,10.1,39,0.00,,---,1.34,VWS V14.01,2013-12-30 02:05:00,
2013-12-29 21:10:00,46.6,23.6,29.53,NNW,330,3.6,4.0,40,0.00,,---,1.34,VWS V14.01,2013-12-30 02:10:00,
2013-12-29 21:15:00,46.4,23.4,29.56,NW,307,4.0,4.0,40,0.00,,---,1.34,VWS V14.01,2013-12-30 02:15:00,
2013-12-29 21:20:00,46.4,23.4,29.56,NW,319,6.3,6.3,40,0.00,,---,1.34,VWS V14.01,2013-12-30 02:20:00,
2013-12-29 21:25:00,46.2,23.8,29.56,WSW,254,5.8,5.8,41,0.00,,---,1.34,VWS V14.01,2013-12-30 02:25:00,
2013-12-29 21:30:00,46.0,23.7,29.56,WNW,288,6.3,6.3,41,0.00,,---,1.34,VWS V14.01,2013-12-30 02:30:00,
2013-12-29 21:35:00,46.0,23.7,29.56,WNW,291,4.0,4.0,41,0.00,,---,1.34,VWS V14.01,2013-12-30 02:35:00,
2013-12-29 21:40:00,46.0,23.1,29.56,West,264,5.4,8.3,40,0.00,,---,1.34,VWS V14.01,2013-12-30 02:40:00,
2013-12-29 21:45:00,46.0,23.1,29.56,NW,306,5.8,7.6,40,0.00,,---,1.34,VWS V14.01,2013-12-30 02:45:00,
2013-12-29 21:50:00,45.7,22.8,29.56,WNW,289,4.0,4.0,40,0.00,,---,1.34,VWS V14.01,2013-12-30 02:50:00,
2013-12-29 21:55:00,45.5,22.6,29.56,North,350,3.6,6.3,40,0.00,,---,1.34,VWS V14.01,2013-12-30 02:55:00,
2013-12-29 22:00:00,45.3,22.4,29.56,WSW,257,3.1,3.6,40,0.00,,---,1.34,VWS V14.01,2013-12-30 03:00:00,
2013-12-29 22:05:00,45.0,22.7,29.56,West,273,2.7,2.7,41,0.00,,---,1.34,VWS V14.01,2013-12-30 03:05:00,
2013-12-29 22:10:00,44.6,22.4,29.56,North,357,3.1,3.1,41,0.00,,---,1.34,VWS V14.01,2013-12-30 03:10:00,
2013-12-29 22:15:00,44.4,23.3,29.59,West,273,3.6,3.6,43,0.00,,---,1.34,VWS V14.01,2013-12-30 03:15:00,
2013-12-29 22:20:00,44.2,23.7,29.59,West,281,4.0,4.0,44,0.00,,---,1.34,VWS V14.01,2013-12-30 03:20:00,
2013-12-29 22:25:00,44.1,23.6,29.59,WNW,291,2.7,2.7,44,0.00,,---,1.34,VWS V14.01,2013-12-30 03:25:00,
2013-12-29 22:30:00,44.1,24.6,29.59,West,274,2.7,2.7,46,0.00,,---,1.34,VWS V14.01,2013-12-30 03:30:00,
2013-12-29 22:35:00,43.9,24.5,29.59,NW,311,2.7,3.6,46,0.00,,---,1.34,VWS V14.01,2013-12-30 03:35:00,
2013-12-29 22:40:00,43.7,24.8,29.59,WNW,290,5.8,6.3,47,0.00,,---,1.34,VWS V14.01,2013-12-30 03:40:00,
2013-12-29 22:45:00,43.7,24.8,29.62,WNW,298,4.0,4.0,47,0.00,,---,1.34,VWS V14.01,2013-12-30 03:45:00,
2013-12-29 22:50:00,43.5,24.1,29.62,WNW,290,2.7,5.8,46,0.00,,---,1.34,VWS V14.01,2013-12-30 03:50:00,
2013-12-29 22:55:00,43.3,24.0,29.62,NW,325,4.0,4.0,46,0.00,,---,1.34,VWS V14.01,2013-12-30 03:55:00,
2013-12-29 23:00:00,43.3,24.5,29.62,WNW,300,4.0,4.0,47,0.00,,---,1.34,VWS V14.01,2013-12-30 04:00:00,
2013-12-29 23:05:00,43.2,24.3,29.62,NW,317,0.0,0.0,47,0.00,,---,1.34,VWS V14.01,2013-12-30 04:05:00,
2013-12-29 23:10:00,43.0,24.1,29.62,NW,314,3.1,3.1,47,0.00,,---,1.34,VWS V14.01,2013-12-30 04:10:00,
2013-12-29 23:15:00,43.0,23.6,29.62,WNW,292,3.1,5.4,46,0.00,,---,1.34,VWS V14.01,2013-12-30 04:15:00,
2013-12-29 23:20:00,42.8,23.5,29.62,North,353,2.7,2.7,46,0.00,,---,1.34,VWS V14.01,2013-12-30 04:20:00,
2013-12-29 23:25:00,42.6,23.8,29.62,WNW,288,2.2,4.0,47,0.00,,---,1.34,VWS V14.01,2013-12-30 04:25:00,
2013-12-29 23:30:00,42.4,23.6,29.62,WNW,294,0.0,0.0,47,0.00,,---,1.34,VWS V14.01,2013-12-30 04:30:00,
2013-12-29 23:35:00,42.3,24.0,29.62,NW,319,3.6,7.6,48,0.00,,---,1.34,VWS V14.01,2013-12-30 04:35:00,
2013-12-29 23:40:00,42.3,24.0,29.62,North,353,3.1,3.1,48,0.00,,---,1.34,VWS V14.01,2013-12-30 04:40:00,
2013-12-29 23:45:00,42.1,24.3,29.62,NW,320,4.0,4.0,49,0.00,,---,1.34,VWS V14.01,2013-12-30 04:45:00,
2013-12-29 23:50:00,42.1,24.3,29.62,NW,320,3.1,3.1,49,0.00,,---,1.34,VWS V14.01,2013-12-30 04:50:00,
2013-12-29 23:55:00,41.7,23.5,29.62,WNW,282,3.1,4.0,48,0.00,,---,1.34,VWS V14.01,2013-12-30 04:55:00,